sensor_id;sensor_type;location;lat;lon;timestamp;temperature;humidity
13998;DHT22;7074;51.508;7.018;2022-11-20T00:00:03;1.10;99.90
13998;DHT22;7074;51.508;7.018;2022-11-20T00:02:32;1.00;99.90
13998;DHT22;7074;51.508;7.018;2022-11-20T00:05:00;1.10;99.90
13998;DHT22;7074;51.508;7.018;2022-11-20T00:07:27;1.10;99.90
13998;DHT22;7074;51.508;7.018;2022-11-20T00:09:56;1.00;99.90
13998;DHT22;7074;51.508;7.018;2022-11-20T00:12:23;1.00;99.90
13998;DHT22;7074;51.508;7.018;2022-11-20T00:14:50;1.00;99.90
13998;DHT22;7074;51.508;7.018;2022-11-20T00:17:17;1.10;99.90
13998;DHT22;7074;51.508;7.018;2022-11-20T00:19:44;1.00;99.90
13998;DHT22;7074;51.508;7.018;2022-11-20T00:22:12;1.00;99.90
13998;DHT22;7074;51.508;7.018;2022-11-20T00:24:39;1.00;99.90
13998;DHT22;7074;51.508;7.018;2022-11-20T00:27:08;1.10;99.90
13998;DHT22;7074;51.508;7.018;2022-11-20T00:29:35;1.10;99.90
13998;DHT22;7074;51.508;7.018;2022-11-20T00:32:02;1.00;99.90
13998;DHT22;7074;51.508;7.018;2022-11-20T00:34:30;0.90;99.90
13998;DHT22;7074;51.508;7.018;2022-11-20T00:36:57;0.90;99.90
13998;DHT22;7074;51.508;7.018;2022-11-20T00:39:24;0.90;99.90
13998;DHT22;7074;51.508;7.018;2022-11-20T00:41:51;0.90;99.90
13998;DHT22;7074;51.508;7.018;2022-11-20T00:44:20;0.90;99.90
13998;DHT22;7074;51.508;7.018;2022-11-20T00:46:47;0.80;99.90
13998;DHT22;7074;51.508;7.018;2022-11-20T00:49:14;0.90;99.90
13998;DHT22;7074;51.508;7.018;2022-11-20T00:51:41;0.80;99.90
13998;DHT22;7074;51.508;7.018;2022-11-20T00:54:08;0.80;99.90
13998;DHT22;7074;51.508;7.018;2022-11-20T00:56:35;0.80;99.90
13998;DHT22;7074;51.508;7.018;2022-11-20T00:59:02;0.80;99.90
13998;DHT22;7074;51.508;7.018;2022-11-20T01:01:31;0.70;99.90
13998;DHT22;7074;51.508;7.018;2022-11-20T01:03:59;0.70;99.90
13998;DHT22;7074;51.508;7.018;2022-11-20T01:06:28;0.70;99.90
13998;DHT22;7074;51.508;7.018;2022-11-20T01:08:58;0.70;99.90
13998;DHT22;7074;51.508;7.018;2022-11-20T01:11:27;0.60;99.90
13998;DHT22;7074;51.508;7.018;2022-11-20T01:13:55;0.60;99.90
13998;DHT22;7074;51.508;7.018;2022-11-20T01:16:25;0.60;99.90
13998;DHT22;7074;51.508;7.018;2022-11-20T01:18:56;0.60;99.90
13998;DHT22;7074;51.508;7.018;2022-11-20T01:21:25;0.60;99.90
13998;DHT22;7074;51.508;7.018;2022-11-20T01:23:53;0.70;99.90
13998;DHT22;7074;51.508;7.018;2022-11-20T01:26:23;0.60;99.90
13998;DHT22;7074;51.508;7.018;2022-11-20T01:28:50;0.60;99.90
13998;DHT22;7074;51.508;7.018;2022-11-20T01:31:21;0.70;99.90
13998;DHT22;7074;51.508;7.018;2022-11-20T01:33:50;0.70;99.90
13998;DHT22;7074;51.508;7.018;2022-11-20T01:36:20;0.70;99.90
13998;DHT22;7074;51.508;7.018;2022-11-20T01:38:50;0.70;99.90
13998;DHT22;7074;51.508;7.018;2022-11-20T01:41:17;0.80;99.90
13998;DHT22;7074;51.508;7.018;2022-11-20T01:43:58;0.80;99.90
13998;DHT22;7074;51.508;7.018;2022-11-20T01:46:26;0.70;99.90
13998;DHT22;7074;51.508;7.018;2022-11-20T01:48:56;0.70;99.90
13998;DHT22;7074;51.508;7.018;2022-11-20T01:51:30;0.70;99.90
13998;DHT22;7074;51.508;7.018;2022-11-20T01:54:02;0.70;99.90
13998;DHT22;7074;51.508;7.018;2022-11-20T01:56:32;0.70;99.90
13998;DHT22;7074;51.508;7.018;2022-11-20T01:59:04;0.50;99.90
13998;DHT22;7074;51.508;7.018;2022-11-20T02:01:32;0.50;99.90
13998;DHT22;7074;51.508;7.018;2022-11-20T02:04:00;0.60;99.90
13998;DHT22;7074;51.508;7.018;2022-11-20T02:06:30;0.70;99.90
13998;DHT22;7074;51.508;7.018;2022-11-20T02:08:58;0.60;99.90
13998;DHT22;7074;51.508;7.018;2022-11-20T02:11:25;0.50;99.90
13998;DHT22;7074;51.508;7.018;2022-11-20T02:13:53;0.50;99.90
13998;DHT22;7074;51.508;7.018;2022-11-20T02:16:22;0.60;99.90
13998;DHT22;7074;51.508;7.018;2022-11-20T02:18:51;0.60;99.90
13998;DHT22;7074;51.508;7.018;2022-11-20T02:21:27;0.70;99.90
13998;DHT22;7074;51.508;7.018;2022-11-20T02:24:04;0.70;99.90
13998;DHT22;7074;51.508;7.018;2022-11-20T02:26:36;0.60;99.90
13998;DHT22;7074;51.508;7.018;2022-11-20T02:29:05;0.50;99.90
13998;DHT22;7074;51.508;7.018;2022-11-20T02:31:41;0.50;99.90
13998;DHT22;7074;51.508;7.018;2022-11-20T02:34:09;0.50;99.90
13998;DHT22;7074;51.508;7.018;2022-11-20T02:36:38;0.40;99.90
13998;DHT22;7074;51.508;7.018;2022-11-20T02:39:08;0.40;99.90
13998;DHT22;7074;51.508;7.018;2022-11-20T02:41:37;0.40;99.90
13998;DHT22;7074;51.508;7.018;2022-11-20T02:44:05;0.40;99.90
13998;DHT22;7074;51.508;7.018;2022-11-20T02:46:32;0.50;99.90
13998;DHT22;7074;51.508;7.018;2022-11-20T02:49:01;0.40;99.90
13998;DHT22;7074;51.508;7.018;2022-11-20T02:51:29;0.50;99.90
13998;DHT22;7074;51.508;7.018;2022-11-20T02:53:56;0.50;99.90
13998;DHT22;7074;51.508;7.018;2022-11-20T02:56:25;0.60;99.90
13998;DHT22;7074;51.508;7.018;2022-11-20T02:58:52;0.60;99.90
13998;DHT22;7074;51.508;7.018;2022-11-20T03:01:20;0.60;99.90
13998;DHT22;7074;51.508;7.018;2022-11-20T03:03:47;0.60;99.90
13998;DHT22;7074;51.508;7.018;2022-11-20T03:06:15;0.70;99.90
13998;DHT22;7074;51.508;7.018;2022-11-20T03:08:42;0.70;99.90
13998;DHT22;7074;51.508;7.018;2022-11-20T03:11:10;0.70;99.90
13998;DHT22;7074;51.508;7.018;2022-11-20T03:13:38;0.80;99.90
13998;DHT22;7074;51.508;7.018;2022-11-20T03:16:07;0.80;99.90
13998;DHT22;7074;51.508;7.018;2022-11-20T03:18:35;0.70;99.90
13998;DHT22;7074;51.508;7.018;2022-11-20T03:21:02;0.80;99.90
13998;DHT22;7074;51.508;7.018;2022-11-20T03:23:30;0.80;99.90
13998;DHT22;7074;51.508;7.018;2022-11-20T03:26:11;0.90;99.90
13998;DHT22;7074;51.508;7.018;2022-11-20T03:28:40;0.90;99.90
13998;DHT22;7074;51.508;7.018;2022-11-20T03:31:12;0.90;99.90
13998;DHT22;7074;51.508;7.018;2022-11-20T03:33:41;1.00;99.90
13998;DHT22;7074;51.508;7.018;2022-11-20T03:36:10;1.00;99.90
13998;DHT22;7074;51.508;7.018;2022-11-20T03:38:38;1.10;99.90
13998;DHT22;7074;51.508;7.018;2022-11-20T03:41:06;1.10;99.90
13998;DHT22;7074;51.508;7.018;2022-11-20T03:43:34;1.10;99.90
13998;DHT22;7074;51.508;7.018;2022-11-20T03:46:03;1.20;99.90
13998;DHT22;7074;51.508;7.018;2022-11-20T03:48:30;1.20;99.90
13998;DHT22;7074;51.508;7.018;2022-11-20T03:51:08;1.20;99.90
13998;DHT22;7074;51.508;7.018;2022-11-20T03:53:36;1.20;99.90
13998;DHT22;7074;51.508;7.018;2022-11-20T03:56:05;1.30;99.90
13998;DHT22;7074;51.508;7.018;2022-11-20T03:58:32;1.30;99.90
13998;DHT22;7074;51.508;7.018;2022-11-20T04:01:06;1.30;99.90
13998;DHT22;7074;51.508;7.018;2022-11-20T04:03:33;1.30;99.90
13998;DHT22;7074;51.508;7.018;2022-11-20T04:06:02;1.30;99.90
13998;DHT22;7074;51.508;7.018;2022-11-20T04:08:30;1.30;99.90
13998;DHT22;7074;51.508;7.018;2022-11-20T04:11:08;1.30;99.90
13998;DHT22;7074;51.508;7.018;2022-11-20T04:13:36;1.40;99.90
13998;DHT22;7074;51.508;7.018;2022-11-20T04:16:05;1.30;99.90
13998;DHT22;7074;51.508;7.018;2022-11-20T04:18:33;1.30;99.90
13998;DHT22;7074;51.508;7.018;2022-11-20T04:21:00;1.40;99.90
13998;DHT22;7074;51.508;7.018;2022-11-20T04:23:28;1.50;99.90
13998;DHT22;7074;51.508;7.018;2022-11-20T04:26:00;1.50;99.90
13998;DHT22;7074;51.508;7.018;2022-11-20T04:28:27;1.50;99.90
13998;DHT22;7074;51.508;7.018;2022-11-20T04:31:00;1.50;99.90
13998;DHT22;7074;51.508;7.018;2022-11-20T04:33:29;1.50;99.90
13998;DHT22;7074;51.508;7.018;2022-11-20T04:36:00;1.60;99.90
13998;DHT22;7074;51.508;7.018;2022-11-20T04:38:28;1.60;99.90
13998;DHT22;7074;51.508;7.018;2022-11-20T04:40:57;1.60;99.90
13998;DHT22;7074;51.508;7.018;2022-11-20T04:43:25;1.60;99.90
13998;DHT22;7074;51.508;7.018;2022-11-20T04:45:53;1.70;99.90
13998;DHT22;7074;51.508;7.018;2022-11-20T04:48:20;1.70;99.90
13998;DHT22;7074;51.508;7.018;2022-11-20T04:50:49;1.70;99.90
13998;DHT22;7074;51.508;7.018;2022-11-20T04:53:17;1.60;99.90
13998;DHT22;7074;51.508;7.018;2022-11-20T04:55:44;1.70;99.90
13998;DHT22;7074;51.508;7.018;2022-11-20T04:58:12;1.70;99.90
13998;DHT22;7074;51.508;7.018;2022-11-20T05:00:39;1.60;99.90
13998;DHT22;7074;51.508;7.018;2022-11-20T05:03:08;1.50;99.90
13998;DHT22;7074;51.508;7.018;2022-11-20T05:05:35;1.50;99.90
13998;DHT22;7074;51.508;7.018;2022-11-20T05:08:04;1.40;99.90
13998;DHT22;7074;51.508;7.018;2022-11-20T05:10:31;1.40;99.90
13998;DHT22;7074;51.508;7.018;2022-11-20T05:12:58;1.40;99.90
13998;DHT22;7074;51.508;7.018;2022-11-20T05:15:25;1.30;99.90
13998;DHT22;7074;51.508;7.018;2022-11-20T05:17:52;1.30;99.90
13998;DHT22;7074;51.508;7.018;2022-11-20T05:20:20;1.30;99.90
13998;DHT22;7074;51.508;7.018;2022-11-20T05:22:47;1.30;99.90
13998;DHT22;7074;51.508;7.018;2022-11-20T05:25:16;1.30;99.90
13998;DHT22;7074;51.508;7.018;2022-11-20T05:27:43;1.30;99.90
13998;DHT22;7074;51.508;7.018;2022-11-20T05:30:11;1.30;99.90
13998;DHT22;7074;51.508;7.018;2022-11-20T05:32:40;1.20;99.90
13998;DHT22;7074;51.508;7.018;2022-11-20T05:35:08;1.30;99.90
13998;DHT22;7074;51.508;7.018;2022-11-20T05:37:35;1.30;99.90
13998;DHT22;7074;51.508;7.018;2022-11-20T05:40:04;1.20;99.90
13998;DHT22;7074;51.508;7.018;2022-11-20T05:42:32;1.20;99.90
13998;DHT22;7074;51.508;7.018;2022-11-20T05:45:01;1.30;99.90
13998;DHT22;7074;51.508;7.018;2022-11-20T05:47:34;1.40;99.90
13998;DHT22;7074;51.508;7.018;2022-11-20T05:50:01;1.40;99.90
13998;DHT22;7074;51.508;7.018;2022-11-20T05:52:29;1.40;99.90
13998;DHT22;7074;51.508;7.018;2022-11-20T05:54:56;1.30;99.90
13998;DHT22;7074;51.508;7.018;2022-11-20T05:57:23;1.40;99.90
13998;DHT22;7074;51.508;7.018;2022-11-20T05:59:53;1.40;99.90
13998;DHT22;7074;51.508;7.018;2022-11-20T06:02:20;1.50;99.90
13998;DHT22;7074;51.508;7.018;2022-11-20T06:04:48;1.40;99.90
13998;DHT22;7074;51.508;7.018;2022-11-20T06:07:17;1.40;99.90
13998;DHT22;7074;51.508;7.018;2022-11-20T06:09:44;1.30;99.90
13998;DHT22;7074;51.508;7.018;2022-11-20T06:12:12;1.30;99.90
13998;DHT22;7074;51.508;7.018;2022-11-20T06:14:39;1.40;99.90
13998;DHT22;7074;51.508;7.018;2022-11-20T06:17:07;1.40;99.90
13998;DHT22;7074;51.508;7.018;2022-11-20T06:19:35;1.40;99.90
13998;DHT22;7074;51.508;7.018;2022-11-20T06:22:02;1.40;99.90
13998;DHT22;7074;51.508;7.018;2022-11-20T06:24:29;1.40;99.90
13998;DHT22;7074;51.508;7.018;2022-11-20T06:26:56;1.40;99.90
13998;DHT22;7074;51.508;7.018;2022-11-20T06:29:23;1.40;99.90
13998;DHT22;7074;51.508;7.018;2022-11-20T06:31:50;1.40;99.90
13998;DHT22;7074;51.508;7.018;2022-11-20T06:34:19;1.40;99.90
13998;DHT22;7074;51.508;7.018;2022-11-20T06:36:47;1.40;99.90
13998;DHT22;7074;51.508;7.018;2022-11-20T06:39:15;1.30;99.90
13998;DHT22;7074;51.508;7.018;2022-11-20T06:41:43;1.40;99.90
13998;DHT22;7074;51.508;7.018;2022-11-20T06:44:11;1.30;99.90
13998;DHT22;7074;51.508;7.018;2022-11-20T06:46:38;1.30;99.90
13998;DHT22;7074;51.508;7.018;2022-11-20T06:49:05;1.30;99.90
13998;DHT22;7074;51.508;7.018;2022-11-20T06:51:34;1.30;99.90
13998;DHT22;7074;51.508;7.018;2022-11-20T06:54:01;1.20;99.90
13998;DHT22;7074;51.508;7.018;2022-11-20T06:56:29;1.30;99.90
13998;DHT22;7074;51.508;7.018;2022-11-20T06:58:56;1.20;99.90
13998;DHT22;7074;51.508;7.018;2022-11-20T07:01:23;1.30;99.90
13998;DHT22;7074;51.508;7.018;2022-11-20T07:03:50;1.20;99.90
13998;DHT22;7074;51.508;7.018;2022-11-20T07:06:17;1.20;99.90
13998;DHT22;7074;51.508;7.018;2022-11-20T07:08:46;1.20;99.90
13998;DHT22;7074;51.508;7.018;2022-11-20T07:11:13;1.20;99.90
13998;DHT22;7074;51.508;7.018;2022-11-20T07:13:40;1.20;99.90
13998;DHT22;7074;51.508;7.018;2022-11-20T07:16:08;1.20;99.90
13998;DHT22;7074;51.508;7.018;2022-11-20T07:18:35;1.20;99.90
13998;DHT22;7074;51.508;7.018;2022-11-20T07:21:03;1.10;99.90
13998;DHT22;7074;51.508;7.018;2022-11-20T07:23:31;1.30;99.90
13998;DHT22;7074;51.508;7.018;2022-11-20T07:26:02;1.20;99.90
13998;DHT22;7074;51.508;7.018;2022-11-20T07:28:29;1.40;99.90
13998;DHT22;7074;51.508;7.018;2022-11-20T07:30:57;1.40;99.90
13998;DHT22;7074;51.508;7.018;2022-11-20T07:33:25;1.40;99.90
13998;DHT22;7074;51.508;7.018;2022-11-20T07:35:52;1.30;99.90
13998;DHT22;7074;51.508;7.018;2022-11-20T07:38:21;1.20;99.90
13998;DHT22;7074;51.508;7.018;2022-11-20T07:40:53;1.30;99.90
13998;DHT22;7074;51.508;7.018;2022-11-20T07:43:22;1.30;99.90
13998;DHT22;7074;51.508;7.018;2022-11-20T07:45:51;1.30;99.90
13998;DHT22;7074;51.508;7.018;2022-11-20T07:48:18;1.30;99.90
13998;DHT22;7074;51.508;7.018;2022-11-20T07:50:45;1.30;99.90
13998;DHT22;7074;51.508;7.018;2022-11-20T07:53:12;1.30;99.90
13998;DHT22;7074;51.508;7.018;2022-11-20T07:55:46;1.30;99.90
13998;DHT22;7074;51.508;7.018;2022-11-20T07:58:13;1.40;99.90
13998;DHT22;7074;51.508;7.018;2022-11-20T08:00:42;1.30;99.90
13998;DHT22;7074;51.508;7.018;2022-11-20T08:03:09;1.20;99.90
13998;DHT22;7074;51.508;7.018;2022-11-20T08:05:37;1.30;99.90
13998;DHT22;7074;51.508;7.018;2022-11-20T08:08:04;1.40;99.90
13998;DHT22;7074;51.508;7.018;2022-11-20T08:10:32;1.40;99.90
13998;DHT22;7074;51.508;7.018;2022-11-20T08:13:00;1.40;99.90
13998;DHT22;7074;51.508;7.018;2022-11-20T08:15:49;1.40;99.90
13998;DHT22;7074;51.508;7.018;2022-11-20T08:18:17;1.50;99.90
13998;DHT22;7074;51.508;7.018;2022-11-20T08:20:45;1.60;99.90
13998;DHT22;7074;51.508;7.018;2022-11-20T08:23:12;1.60;99.90
13998;DHT22;7074;51.508;7.018;2022-11-20T08:25:40;1.60;99.90
13998;DHT22;7074;51.508;7.018;2022-11-20T08:28:08;1.60;99.90
13998;DHT22;7074;51.508;7.018;2022-11-20T08:30:36;1.60;99.90
13998;DHT22;7074;51.508;7.018;2022-11-20T08:33:07;1.70;99.90
13998;DHT22;7074;51.508;7.018;2022-11-20T08:35:38;1.80;99.90
13998;DHT22;7074;51.508;7.018;2022-11-20T08:38:41;1.80;99.90
13998;DHT22;7074;51.508;7.018;2022-11-20T08:41:09;1.80;99.90
13998;DHT22;7074;51.508;7.018;2022-11-20T08:43:55;1.90;99.90
13998;DHT22;7074;51.508;7.018;2022-11-20T08:46:23;1.90;99.90
13998;DHT22;7074;51.508;7.018;2022-11-20T08:48:53;2.00;99.90
13998;DHT22;7074;51.508;7.018;2022-11-20T08:51:20;2.00;99.90
13998;DHT22;7074;51.508;7.018;2022-11-20T08:53:48;2.10;99.90
13998;DHT22;7074;51.508;7.018;2022-11-20T08:56:16;2.20;99.90
13998;DHT22;7074;51.508;7.018;2022-11-20T08:58:43;2.30;99.90
13998;DHT22;7074;51.508;7.018;2022-11-20T09:01:11;2.40;99.90
13998;DHT22;7074;51.508;7.018;2022-11-20T09:03:38;2.50;99.90
13998;DHT22;7074;51.508;7.018;2022-11-20T09:06:07;2.50;99.90
13998;DHT22;7074;51.508;7.018;2022-11-20T09:08:34;2.60;99.90
13998;DHT22;7074;51.508;7.018;2022-11-20T09:11:03;2.70;99.90
13998;DHT22;7074;51.508;7.018;2022-11-20T09:13:31;2.70;99.90
13998;DHT22;7074;51.508;7.018;2022-11-20T09:16:01;2.60;99.90
13998;DHT22;7074;51.508;7.018;2022-11-20T09:18:29;2.60;99.90
13998;DHT22;7074;51.508;7.018;2022-11-20T09:20:58;2.70;99.90
13998;DHT22;7074;51.508;7.018;2022-11-20T09:23:30;2.80;99.90
13998;DHT22;7074;51.508;7.018;2022-11-20T09:25:58;2.90;99.90
13998;DHT22;7074;51.508;7.018;2022-11-20T09:28:25;3.00;99.90
13998;DHT22;7074;51.508;7.018;2022-11-20T09:30:53;3.10;99.90
13998;DHT22;7074;51.508;7.018;2022-11-20T09:33:20;3.20;99.90
13998;DHT22;7074;51.508;7.018;2022-11-20T09:35:47;3.20;99.90
13998;DHT22;7074;51.508;7.018;2022-11-20T09:38:14;3.40;99.90
13998;DHT22;7074;51.508;7.018;2022-11-20T09:40:49;3.40;99.90
13998;DHT22;7074;51.508;7.018;2022-11-20T09:43:21;3.50;99.90
13998;DHT22;7074;51.508;7.018;2022-11-20T09:46:00;3.50;99.90
13998;DHT22;7074;51.508;7.018;2022-11-20T09:48:44;3.60;99.90
13998;DHT22;7074;51.508;7.018;2022-11-20T09:51:20;3.70;99.90
13998;DHT22;7074;51.508;7.018;2022-11-20T09:54:01;3.80;99.90
13998;DHT22;7074;51.508;7.018;2022-11-20T09:56:37;3.90;99.90
13998;DHT22;7074;51.508;7.018;2022-11-20T09:59:07;4.00;99.90
13998;DHT22;7074;51.508;7.018;2022-11-20T10:01:40;4.10;99.90
13998;DHT22;7074;51.508;7.018;2022-11-20T10:04:14;4.20;99.90
13998;DHT22;7074;51.508;7.018;2022-11-20T10:07:00;4.30;99.90
13998;DHT22;7074;51.508;7.018;2022-11-20T10:09:32;4.30;99.90
13998;DHT22;7074;51.508;7.018;2022-11-20T10:12:13;4.30;99.90
13998;DHT22;7074;51.508;7.018;2022-11-20T10:15:03;4.40;99.90
13998;DHT22;7074;51.508;7.018;2022-11-20T10:20:38;4.70;99.90
13998;DHT22;7074;51.508;7.018;2022-11-20T10:23:20;4.60;99.90
13998;DHT22;7074;51.508;7.018;2022-11-20T10:25:56;4.70;99.90
13998;DHT22;7074;51.508;7.018;2022-11-20T10:28:43;4.90;99.90
13998;DHT22;7074;51.508;7.018;2022-11-20T10:31:27;5.10;99.90
13998;DHT22;7074;51.508;7.018;2022-11-20T10:33:57;5.30;99.90
13998;DHT22;7074;51.508;7.018;2022-11-20T10:36:34;5.40;99.90
13998;DHT22;7074;51.508;7.018;2022-11-20T10:39:20;5.60;99.90
13998;DHT22;7074;51.508;7.018;2022-11-20T10:41:51;5.60;99.90
13998;DHT22;7074;51.508;7.018;2022-11-20T10:44:24;5.80;99.90
13998;DHT22;7074;51.508;7.018;2022-11-20T10:47:15;5.90;99.90
13998;DHT22;7074;51.508;7.018;2022-11-20T10:49:44;6.00;99.90
13998;DHT22;7074;51.508;7.018;2022-11-20T10:52:19;6.00;99.90
13998;DHT22;7074;51.508;7.018;2022-11-20T10:54:58;6.10;99.90
13998;DHT22;7074;51.508;7.018;2022-11-20T10:57:41;6.00;99.90
13998;DHT22;7074;51.508;7.018;2022-11-20T11:00:16;6.10;99.90
13998;DHT22;7074;51.508;7.018;2022-11-20T11:02:47;6.20;99.90
13998;DHT22;7074;51.508;7.018;2022-11-20T11:05:33;6.20;99.90
13998;DHT22;7074;51.508;7.018;2022-11-20T11:08:08;6.30;99.90
13998;DHT22;7074;51.508;7.018;2022-11-20T11:10:44;6.40;99.90
13998;DHT22;7074;51.508;7.018;2022-11-20T11:13:21;6.40;99.90
13998;DHT22;7074;51.508;7.018;2022-11-20T11:15:52;6.40;99.90
13998;DHT22;7074;51.508;7.018;2022-11-20T11:18:24;6.40;99.90
13998;DHT22;7074;51.508;7.018;2022-11-20T11:20:54;6.50;99.90
13998;DHT22;7074;51.508;7.018;2022-11-20T11:23:31;6.60;99.90
13998;DHT22;7074;51.508;7.018;2022-11-20T11:26:02;6.70;99.90
13998;DHT22;7074;51.508;7.018;2022-11-20T11:28:31;6.70;99.90
13998;DHT22;7074;51.508;7.018;2022-11-20T11:31:01;6.70;99.90
13998;DHT22;7074;51.508;7.018;2022-11-20T11:33:30;6.80;99.90
13998;DHT22;7074;51.508;7.018;2022-11-20T11:36:01;6.80;99.90
13998;DHT22;7074;51.508;7.018;2022-11-20T11:38:32;6.90;99.90
13998;DHT22;7074;51.508;7.018;2022-11-20T11:41:01;7.00;99.90
13998;DHT22;7074;51.508;7.018;2022-11-20T11:43:31;7.00;99.90
13998;DHT22;7074;51.508;7.018;2022-11-20T11:46:31;7.00;99.90
13998;DHT22;7074;51.508;7.018;2022-11-20T11:49:00;7.10;99.90
13998;DHT22;7074;51.508;7.018;2022-11-20T11:51:36;7.10;99.90
13998;DHT22;7074;51.508;7.018;2022-11-20T11:54:15;7.20;99.90
13998;DHT22;7074;51.508;7.018;2022-11-20T11:56:43;7.20;99.90
13998;DHT22;7074;51.508;7.018;2022-11-20T11:59:17;7.30;99.90
13998;DHT22;7074;51.508;7.018;2022-11-20T12:01:55;7.10;99.90
13998;DHT22;7074;51.508;7.018;2022-11-20T12:04:37;7.20;99.90
13998;DHT22;7074;51.508;7.018;2022-11-20T12:07:11;7.20;99.90
13998;DHT22;7074;51.508;7.018;2022-11-20T12:09:46;7.20;99.90
13998;DHT22;7074;51.508;7.018;2022-11-20T12:12:19;7.20;99.90
13998;DHT22;7074;51.508;7.018;2022-11-20T12:14:53;7.20;99.90
13998;DHT22;7074;51.508;7.018;2022-11-20T12:17:24;7.30;99.90
13998;DHT22;7074;51.508;7.018;2022-11-20T12:19:51;7.30;99.90
13998;DHT22;7074;51.508;7.018;2022-11-20T12:22:28;7.30;99.90
13998;DHT22;7074;51.508;7.018;2022-11-20T12:25:01;7.30;99.90
13998;DHT22;7074;51.508;7.018;2022-11-20T12:28:12;7.30;99.90
13998;DHT22;7074;51.508;7.018;2022-11-20T12:30:51;7.30;99.90
13998;DHT22;7074;51.508;7.018;2022-11-20T12:33:47;7.30;99.90
13998;DHT22;7074;51.508;7.018;2022-11-20T12:36:23;7.10;99.90
13998;DHT22;7074;51.508;7.018;2022-11-20T12:39:07;7.00;99.90
13998;DHT22;7074;51.508;7.018;2022-11-20T12:42:01;7.00;99.90
13998;DHT22;7074;51.508;7.018;2022-11-20T12:45:10;7.10;99.90
13998;DHT22;7074;51.508;7.018;2022-11-20T12:48:06;7.10;99.90
13998;DHT22;7074;51.508;7.018;2022-11-20T12:50:46;7.10;99.90
13998;DHT22;7074;51.508;7.018;2022-11-20T12:53:27;7.20;99.90
13998;DHT22;7074;51.508;7.018;2022-11-20T12:56:03;7.10;99.90
13998;DHT22;7074;51.508;7.018;2022-11-20T12:58:39;7.10;99.90
13998;DHT22;7074;51.508;7.018;2022-11-20T13:01:24;7.10;99.90
13998;DHT22;7074;51.508;7.018;2022-11-20T13:04:18;7.10;99.90
13998;DHT22;7074;51.508;7.018;2022-11-20T13:06:49;6.90;99.90
13998;DHT22;7074;51.508;7.018;2022-11-20T13:09:19;7.00;99.90
13998;DHT22;7074;51.508;7.018;2022-11-20T13:11:53;7.10;99.90
13998;DHT22;7074;51.508;7.018;2022-11-20T13:14:31;7.10;99.90
13998;DHT22;7074;51.508;7.018;2022-11-20T13:17:05;7.10;99.90
13998;DHT22;7074;51.508;7.018;2022-11-20T13:19:33;7.10;99.90
13998;DHT22;7074;51.508;7.018;2022-11-20T13:22:02;7.10;99.90
13998;DHT22;7074;51.508;7.018;2022-11-20T13:24:31;7.10;99.90
13998;DHT22;7074;51.508;7.018;2022-11-20T13:27:03;7.10;99.90
13998;DHT22;7074;51.508;7.018;2022-11-20T13:29:34;7.20;99.90
13998;DHT22;7074;51.508;7.018;2022-11-20T13:32:06;7.20;99.90
13998;DHT22;7074;51.508;7.018;2022-11-20T13:34:34;7.10;99.90
13998;DHT22;7074;51.508;7.018;2022-11-20T13:37:03;7.10;99.90
13998;DHT22;7074;51.508;7.018;2022-11-20T13:39:32;7.20;99.90
13998;DHT22;7074;51.508;7.018;2022-11-20T13:42:01;7.20;99.90
13998;DHT22;7074;51.508;7.018;2022-11-20T13:44:33;7.20;99.90
13998;DHT22;7074;51.508;7.018;2022-11-20T13:47:03;7.20;99.90
13998;DHT22;7074;51.508;7.018;2022-11-20T13:49:33;7.20;99.90
13998;DHT22;7074;51.508;7.018;2022-11-20T13:52:30;7.20;99.90
13998;DHT22;7074;51.508;7.018;2022-11-20T13:55:12;7.20;99.90
13998;DHT22;7074;51.508;7.018;2022-11-20T14:00:50;7.10;99.90
13998;DHT22;7074;51.508;7.018;2022-11-20T14:03:23;7.20;99.90
13998;DHT22;7074;51.508;7.018;2022-11-20T14:05:56;7.10;99.90
13998;DHT22;7074;51.508;7.018;2022-11-20T14:08:36;7.10;99.90
13998;DHT22;7074;51.508;7.018;2022-11-20T14:11:11;7.00;99.90
13998;DHT22;7074;51.508;7.018;2022-11-20T14:14:01;7.10;99.90
13998;DHT22;7074;51.508;7.018;2022-11-20T14:16:37;7.00;99.90
13998;DHT22;7074;51.508;7.018;2022-11-20T14:19:28;6.90;99.90
13998;DHT22;7074;51.508;7.018;2022-11-20T14:22:16;6.90;99.90
13998;DHT22;7074;51.508;7.018;2022-11-20T14:25:03;6.90;99.90
13998;DHT22;7074;51.508;7.018;2022-11-20T14:27:47;6.90;99.90
13998;DHT22;7074;51.508;7.018;2022-11-20T14:30:25;6.90;99.90
13998;DHT22;7074;51.508;7.018;2022-11-20T14:32:55;7.00;99.90
13998;DHT22;7074;51.508;7.018;2022-11-20T14:35:31;6.90;99.90
13998;DHT22;7074;51.508;7.018;2022-11-20T16:00:40;6.00;99.90
13998;DHT22;7074;51.508;7.018;2022-11-20T16:03:10;6.00;99.90
13998;DHT22;7074;51.508;7.018;2022-11-20T16:05:37;5.90;99.90
13998;DHT22;7074;51.508;7.018;2022-11-20T16:08:05;5.90;99.90
13998;DHT22;7074;51.508;7.018;2022-11-20T16:10:32;5.90;99.90
13998;DHT22;7074;51.508;7.018;2022-11-20T16:13:00;5.90;99.90
13998;DHT22;7074;51.508;7.018;2022-11-20T16:15:49;5.90;99.90
13998;DHT22;7074;51.508;7.018;2022-11-20T16:18:19;5.90;99.90
13998;DHT22;7074;51.508;7.018;2022-11-20T16:20:49;6.00;99.90
13998;DHT22;7074;51.508;7.018;2022-11-20T16:23:16;5.80;99.90
13998;DHT22;7074;51.508;7.018;2022-11-20T16:25:44;5.80;99.90
13998;DHT22;7074;51.508;7.018;2022-11-20T16:31:23;5.90;99.90
13998;DHT22;7074;51.508;7.018;2022-11-20T16:34:36;5.90;99.90
13998;DHT22;7074;51.508;7.018;2022-11-20T16:37:44;6.00;99.90
13998;DHT22;7074;51.508;7.018;2022-11-20T16:40:35;6.00;99.90
13998;DHT22;7074;51.508;7.018;2022-11-20T16:44:11;6.00;99.90
13998;DHT22;7074;51.508;7.018;2022-11-20T16:46:42;6.00;99.90
13998;DHT22;7074;51.508;7.018;2022-11-20T16:49:12;6.00;99.90
13998;DHT22;7074;51.508;7.018;2022-11-20T16:51:43;6.00;99.90
13998;DHT22;7074;51.508;7.018;2022-11-20T16:54:32;6.00;99.90
13998;DHT22;7074;51.508;7.018;2022-11-20T16:57:18;6.10;99.90
13998;DHT22;7074;51.508;7.018;2022-11-20T16:59:48;6.10;99.90
13998;DHT22;7074;51.508;7.018;2022-11-20T17:02:54;6.00;99.90
13998;DHT22;7074;51.508;7.018;2022-11-20T17:05:22;6.00;99.90
13998;DHT22;7074;51.508;7.018;2022-11-20T17:08:05;6.00;99.90
13998;DHT22;7074;51.508;7.018;2022-11-20T17:10:33;6.00;99.90
13998;DHT22;7074;51.508;7.018;2022-11-20T17:13:03;6.10;99.90
13998;DHT22;7074;51.508;7.018;2022-11-20T17:15:30;6.10;99.90
13998;DHT22;7074;51.508;7.018;2022-11-20T17:17:59;6.20;99.90
13998;DHT22;7074;51.508;7.018;2022-11-20T17:20:28;6.20;99.90
13998;DHT22;7074;51.508;7.018;2022-11-20T17:22:57;6.10;99.90
13998;DHT22;7074;51.508;7.018;2022-11-20T17:25:24;6.10;99.90
13998;DHT22;7074;51.508;7.018;2022-11-20T17:27:52;6.10;99.90
13998;DHT22;7074;51.508;7.018;2022-11-20T17:30:20;6.10;99.90
13998;DHT22;7074;51.508;7.018;2022-11-20T17:32:47;6.00;99.90
13998;DHT22;7074;51.508;7.018;2022-11-20T17:38:16;6.00;99.90
13998;DHT22;7074;51.508;7.018;2022-11-20T17:40:44;6.10;99.90
13998;DHT22;7074;51.508;7.018;2022-11-20T17:43:11;6.10;99.90
13998;DHT22;7074;51.508;7.018;2022-11-20T17:45:39;6.10;99.90
13998;DHT22;7074;51.508;7.018;2022-11-20T17:48:06;6.10;99.90
13998;DHT22;7074;51.508;7.018;2022-11-20T17:50:33;6.10;99.90
13998;DHT22;7074;51.508;7.018;2022-11-20T17:53:01;6.10;99.90
13998;DHT22;7074;51.508;7.018;2022-11-20T17:55:29;6.10;99.90
13998;DHT22;7074;51.508;7.018;2022-11-20T17:58:17;6.10;99.90
13998;DHT22;7074;51.508;7.018;2022-11-20T18:00:43;6.10;99.90
13998;DHT22;7074;51.508;7.018;2022-11-20T18:03:11;6.20;99.90
13998;DHT22;7074;51.508;7.018;2022-11-20T18:05:38;6.20;99.90